Time;durP1;ratioP1;P1;durP2;ratioP2;P2;SDS_P1;SDS_P2;PMS_P1;PMS_P2;Temp;Humidity;BMP_temperature;BMP_pressure;BME280_temperature;BME280_humidity;BME280_pressure;Samples;Min_cycle;Max_cycle;Signal;HPM_P1;HPM_P2
2022/01/10 00:03:36;;;;;;;31.80;12.00;;;3.60;99.90;;;;;;12383328;28;20162;-85
2022/01/10 00:09:38;;;;;;;32.00;12.18;;;3.60;99.90;;;;;;12395075;28;20054;-86
2022/01/10 00:15:40;;;;;;;32.38;11.15;;;3.60;99.90;;;;;;12383726;28;20048;-85
2022/01/10 00:21:43;;;;;;;28.10;11.60;;;3.60;99.90;;;;;;12388135;28;20053;-86
2022/01/10 00:27:46;;;;;;;22.95;11.73;;;3.60;99.90;;;;;;12403540;28;20176;-85
2022/01/10 00:33:47;;;;;;;29.10;11.82;;;3.50;99.90;;;;;;12400524;28;20145;-86
2022/01/10 00:39:49;;;;;;;32.13;12.93;;;3.50;99.90;;;;;;12387392;28;20058;-86
2022/01/10 00:45:51;;;;;;;37.70;13.18;;;3.50;99.90;;;;;;12389346;28;20457;-85
2022/01/10 00:51:53;;;;;;;30.05;12.45;;;3.50;99.90;;;;;;12401589;28;20507;-86
2022/01/10 00:57:56;;;;;;;35.72;12.80;;;3.40;99.90;;;;;;12388025;28;20166;-86
2022/01/10 01:03:58;;;;;;;27.60;11.93;;;3.40;99.90;;;;;;12400703;28;20552;-85
2022/01/10 01:16:18;;;;;;;24.57;12.57;;;3.40;99.90;;;;;;12399057;28;21109;-86
2022/01/10 01:28:40;;;;;;;24.77;12.68;;;3.40;99.90;;;;;;12398687;28;20464;-86
2022/01/10 01:34:42;;;;;;;33.95;12.40;;;3.50;99.90;;;;;;12390136;28;20125;-85
2022/01/10 01:40:58;;;;;;;25.73;12.32;;;3.50;99.90;;;;;;12397914;28;20395;-86
2022/01/10 01:47:00;;;;;;;28.80;12.73;;;3.40;99.90;;;;;;12386502;28;20508;-84
2022/01/10 01:53:04;;;;;;;29.67;13.18;;;3.40;99.90;;;;;;12399400;28;20061;-86
2022/01/10 01:59:09;;;;;;;34.13;13.73;;;3.40;99.90;;;;;;12396851;28;20133;-85
2022/01/10 02:05:10;;;;;;;34.15;13.50;;;3.40;99.90;;;;;;12395960;28;20510;-85
2022/01/10 02:11:14;;;;;;;33.35;14.70;;;3.40;99.90;;;;;;12397814;28;20097;-86
2022/01/10 02:17:21;;;;;;;31.48;13.13;;;3.40;99.90;;;;;;12401480;28;20095;-85
2022/01/10 02:23:24;;;;;;;32.22;13.27;;;3.40;99.90;;;;;;12384567;28;20449;-86
2022/01/10 02:29:25;;;;;;;33.63;13.95;;;3.30;99.90;;;;;;12389364;28;20565;-84
2022/01/10 02:35:33;;;;;;;29.45;13.25;;;3.30;99.90;;;;;;12397933;28;20555;-85
2022/01/10 02:41:42;;;;;;;42.90;13.95;;;3.30;99.90;;;;;;12393878;28;20109;-87
2022/01/10 02:47:44;;;;;;;30.65;13.80;;;3.30;99.90;;;;;;12387079;28;20140;-84
2022/01/10 02:53:46;;;;;;;37.15;14.25;;;3.30;99.90;;;;;;12385783;28;20058;-85
2022/01/10 02:59:48;;;;;;;35.70;14.27;;;3.20;99.90;;;;;;12387751;28;20104;-86
2022/01/10 03:05:50;;;;;;;28.00;13.75;;;3.20;99.90;;;;;;12395387;28;20517;-86
2022/01/10 03:11:52;;;;;;;30.73;13.60;;;3.20;99.90;;;;;;12395917;28;20053;-85
2022/01/10 03:17:54;;;;;;;32.88;14.07;;;3.20;99.90;;;;;;12381950;28;20592;-85
2022/01/10 03:23:58;;;;;;;31.67;12.77;;;3.20;99.90;;;;;;12384790;28;20567;-87
2022/01/10 03:30:00;;;;;;;44.80;14.18;;;3.20;99.90;;;;;;12395229;28;20058;-84
2022/01/10 03:36:03;;;;;;;29.33;12.93;;;3.30;99.90;;;;;;12408278;28;20134;-86
2022/01/10 03:42:05;;;;;;;32.63;12.55;;;3.20;99.90;;;;;;12439456;28;20567;-84
2022/01/10 03:48:07;;;;;;;36.45;13.80;;;3.10;99.90;;;;;;12393031;28;20120;-85
2022/01/10 03:54:09;;;;;;;35.85;12.90;;;2.90;99.90;;;;;;12390147;28;20537;-84
2022/01/10 04:00:12;;;;;;;33.00;13.00;;;2.80;99.90;;;;;;12411983;28;20049;-84
2022/01/10 04:06:14;;;;;;;31.58;13.05;;;2.70;99.90;;;;;;12388263;28;20141;-86
2022/01/10 04:12:15;;;;;;;37.90;14.43;;;2.60;99.90;;;;;;12387430;28;20043;-85
2022/01/10 04:18:18;;;;;;;36.22;14.13;;;2.50;99.90;;;;;;12395262;28;20121;-85
2022/01/10 04:24:20;;;;;;;29.25;12.38;;;2.40;99.90;;;;;;12402659;28;20731;-86
2022/01/10 04:30:21;;;;;;;32.88;11.85;;;2.30;99.90;;;;;;12383293;28;20142;-85
2022/01/10 04:36:24;;;;;;;34.15;13.52;;;2.30;99.90;;;;;;12384330;28;20050;-85
2022/01/10 04:42:26;;;;;;;35.95;13.18;;;2.20;99.90;;;;;;12403710;28;20054;-87
2022/01/10 04:48:28;;;;;;;39.53;15.50;;;2.30;99.90;;;;;;12391815;28;20045;-86
2022/01/10 04:54:29;;;;;;;42.70;13.68;;;2.40;99.90;;;;;;12381875;28;20136;-85
2022/01/10 05:00:31;;;;;;;34.10;13.65;;;2.30;99.90;;;;;;12384392;28;20132;-86
2022/01/10 05:06:33;;;;;;;38.75;14.90;;;2.30;99.90;;;;;;12390020;28;20058;-86
2022/01/10 05:12:35;;;;;;;35.15;13.95;;;2.40;99.90;;;;;;12399542;28;21249;-85
2022/01/10 05:18:38;;;;;;;40.35;14.98;;;2.30;99.90;;;;;;12390682;28;20060;-85
2022/01/10 05:24:41;;;;;;;39.55;14.90;;;2.30;99.90;;;;;;12380769;28;20065;-86
2022/01/10 05:30:43;;;;;;;36.30;14.35;;;2.20;99.90;;;;;;12387186;28;20455;-85
2022/01/10 05:36:45;;;;;;;35.83;15.02;;;2.20;99.90;;;;;;12398493;28;20132;-85
2022/01/10 05:42:47;;;;;;;35.72;14.35;;;2.10;99.90;;;;;;12382265;28;20050;-86
2022/01/10 05:48:52;;;;;;;42.13;14.70;;;2.20;99.90;;;;;;12384870;28;20106;-85
2022/01/10 05:54:54;;;;;;;44.17;16.08;;;2.30;99.90;;;;;;12385799;28;20469;-84
2022/01/10 06:00:56;;;;;;;36.60;15.60;;;2.40;99.90;;;;;;12378159;28;20578;-86
2022/01/10 06:06:58;;;;;;;44.10;16.20;;;2.60;99.90;;;;;;12382706;28;20655;-86
2022/01/10 06:13:00;;;;;;;37.63;16.00;;;2.60;99.90;;;;;;12386736;28;20167;-85
2022/01/10 06:19:03;;;;;;;44.10;15.85;;;2.60;99.90;;;;;;12380909;28;20144;-84
2022/01/10 06:25:06;;;;;;;37.17;16.90;;;2.60;99.90;;;;;;12382053;28;20054;-84
2022/01/10 06:31:08;;;;;;;39.10;16.40;;;2.60;99.90;;;;;;12371339;28;20104;-86
2022/01/10 06:37:10;;;;;;;44.88;16.85;;;2.70;99.90;;;;;;12374613;28;20054;-86
2022/01/10 06:43:12;;;;;;;41.65;16.58;;;2.70;99.90;;;;;;12387510;28;20050;-85
2022/01/10 06:49:14;;;;;;;40.45;16.65;;;2.70;99.90;;;;;;12380312;28;20534;-85
2022/01/10 06:55:16;;;;;;;38.35;17.60;;;2.80;99.90;;;;;;12398731;28;20111;-84
2022/01/10 07:01:19;;;;;;;38.42;17.13;;;2.80;99.90;;;;;;12387996;28;20054;-85
2022/01/10 07:07:21;;;;;;;38.97;16.70;;;2.90;99.90;;;;;;12398077;28;20424;-84
2022/01/10 07:13:24;;;;;;;38.10;16.98;;;2.90;99.90;;;;;;12413157;28;20540;-86
2022/01/10 07:19:26;;;;;;;36.30;16.88;;;2.90;99.90;;;;;;12399868;28;20570;-86
2022/01/10 07:25:28;;;;;;;43.28;17.48;;;3.00;99.90;;;;;;12400807;28;20042;-87
2022/01/10 07:31:30;;;;;;;29.58;15.70;;;3.00;99.90;;;;;;12387779;28;20499;-86
2022/01/10 07:37:32;;;;;;;43.47;16.80;;;3.00;99.90;;;;;;12404167;28;20135;-86
2022/01/10 07:43:35;;;;;;;37.40;15.80;;;3.00;99.90;;;;;;12403182;28;20054;-86
2022/01/10 07:49:38;;;;;;;35.55;16.17;;;3.00;99.90;;;;;;12386120;28;20422;-85
2022/01/10 07:55:39;;;;;;;38.53;15.90;;;3.00;99.90;;;;;;12401534;28;20054;-85
2022/01/10 08:01:41;;;;;;;42.53;16.17;;;3.10;99.90;;;;;;12382185;28;20165;-86
2022/01/10 08:07:43;;;;;;;32.90;15.50;;;3.10;99.90;;;;;;12387564;28;20466;-86
2022/01/10 08:13:45;;;;;;;36.78;15.90;;;3.10;99.90;;;;;;12383323;28;20145;-86
2022/01/10 08:19:47;;;;;;;35.00;16.15;;;3.20;99.90;;;;;;12384987;28;20114;-86
2022/01/10 08:25:49;;;;;;;39.63;15.68;;;3.30;99.90;;;;;;12387571;28;20396;-85
2022/01/10 08:31:52;;;;;;;36.80;16.02;;;3.30;99.90;;;;;;12377091;28;20411;-86
2022/01/10 08:37:54;;;;;;;34.42;15.80;;;3.40;99.90;;;;;;12378530;28;20062;-85
2022/01/10 08:43:56;;;;;;;37.85;14.60;;;3.50;99.90;;;;;;12399030;28;20604;-85
2022/01/10 08:49:58;;;;;;;33.75;15.48;;;3.60;99.90;;;;;;12380571;28;20117;-86
2022/01/10 08:56:01;;;;;;;32.17;14.48;;;3.60;99.90;;;;;;12348230;28;20046;-87
2022/01/10 09:02:03;;;;;;;28.25;13.25;;;3.70;99.90;;;;;;12383601;28;20089;-86
2022/01/10 09:08:06;;;;;;;30.23;14.68;;;3.80;99.90;;;;;;12388324;28;20525;-85
2022/01/10 09:14:09;;;;;;;27.02;14.73;;;3.80;99.90;;;;;;12384426;28;20050;-86
2022/01/10 09:20:11;;;;;;;31.80;15.57;;;3.90;99.90;;;;;;12381022;28;20485;-87
2022/01/10 09:26:13;;;;;;;34.10;15.35;;;3.90;99.90;;;;;;12397499;28;20053;-87
2022/01/10 09:32:15;;;;;;;34.75;14.98;;;3.90;99.90;;;;;;12393179;28;20050;-85
2022/01/10 09:38:16;;;;;;;35.45;16.23;;;4.00;99.90;;;;;;12372444;28;20488;-86
2022/01/10 09:44:19;;;;;;;33.28;15.48;;;4.10;99.90;;;;;;12379430;28;20116;-87
2022/01/10 09:50:21;;;;;;;33.35;14.88;;;4.10;99.90;;;;;;12376808;28;20049;-85
2022/01/10 09:56:24;;;;;;;28.67;14.10;;;4.10;99.90;;;;;;12370960;28;20069;-86
2022/01/10 10:02:33;;;;;;;32.75;15.63;;;4.20;99.90;;;;;;12384889;28;20050;-86
2022/01/10 10:08:38;;;;;;;30.98;13.68;;;4.10;99.90;;;;;;12376639;28;20549;-85
2022/01/10 10:14:41;;;;;;;;;;;4.20;99.90;;;;;;12367962;28;20063;-87
2022/01/10 10:20:44;;;;;;;34.08;14.35;;;4.30;99.90;;;;;;12349329;28;20431;-86
2022/01/10 10:26:51;;;;;;;30.92;14.73;;;4.30;99.90;;;;;;12387678;28;20042;-85
2022/01/10 10:33:11;;;;;;;29.00;14.38;;;4.40;99.90;;;;;;12331317;28;20133;-87
2022/01/10 10:39:13;;;;;;;28.65;13.90;;;4.40;99.90;;;;;;12376560;28;20046;-86
2022/01/10 10:45:15;;;;;;;22.25;11.80;;;4.70;99.90;;;;;;12368623;28;20060;-86
2022/01/10 10:51:18;;;;;;;33.83;12.75;;;4.80;99.90;;;;;;12373927;28;20050;-85
2022/01/10 10:57:21;;;;;;;32.92;12.68;;;4.80;99.90;;;;;;12396853;28;20066;-86
2022/01/10 11:03:24;;;;;;;22.85;10.23;;;4.90;99.90;;;;;;12373620;28;20050;-87
2022/01/10 11:09:27;;;;;;;27.02;11.07;;;4.90;99.90;;;;;;12372336;28;20045;-87
2022/01/10 11:15:30;;;;;;;25.00;11.27;;;4.90;99.90;;;;;;12395637;28;20053;-85
2022/01/10 11:21:34;;;;;;;26.35;11.63;;;5.00;99.90;;;;;;12373495;28;20680;-86
2022/01/10 11:27:42;;;;;;;24.88;11.02;;;5.00;99.90;;;;;;12375117;28;20135;-87
2022/01/10 11:33:46;;;;;;;22.45;10.57;;;5.00;99.90;;;;;;12376963;28;20054;-87
2022/01/10 11:39:48;;;;;;;27.67;11.97;;;5.10;99.90;;;;;;12398894;28;20102;-85
2022/01/10 11:45:50;;;;;;;24.23;10.55;;;5.20;99.90;;;;;;12411156;28;20054;-87
2022/01/10 11:51:52;;;;;;;21.52;10.63;;;5.30;99.90;;;;;;12382487;28;20038;-86
2022/01/10 11:58:20;;;;;;;23.42;10.32;;;5.30;99.90;;;;;;12386042;28;20522;-86
2022/01/10 12:04:25;;;;;;;21.23;9.98;;;5.50;99.90;;;;;;12374551;28;21037;-85
2022/01/10 12:10:27;;;;;;;24.15;9.27;;;5.50;99.90;;;;;;12396382;28;20049;-86
2022/01/10 12:16:29;;;;;;;27.80;9.48;;;5.40;99.90;;;;;;12381504;28;20050;-87
2022/01/10 12:22:31;;;;;;;23.58;9.05;;;5.40;99.90;;;;;;12379725;28;20050;-85
2022/01/10 12:28:33;;;;;;;19.42;8.75;;;5.50;99.90;;;;;;12379477;28;20092;-85
2022/01/10 12:34:36;;;;;;;23.92;9.15;;;5.50;99.90;;;;;;12394140;28;20062;-86
2022/01/10 12:40:38;;;;;;;23.13;9.30;;;5.40;99.90;;;;;;12379177;28;20383;-85
2022/01/10 12:46:41;;;;;;;23.17;10.15;;;5.40;99.90;;;;;;12384154;28;20123;-86
2022/01/10 12:52:42;;;;;;;20.23;9.90;;;5.20;99.90;;;;;;12389882;28;20140;-86
2022/01/10 12:58:45;;;;;;;23.73;10.10;;;5.20;99.90;;;;;;12394376;28;20113;-87
2022/01/10 13:04:46;;;;;;;26.90;10.38;;;5.20;99.90;;;;;;12389945;28;20060;-85
2022/01/10 13:10:52;;;;;;;21.83;9.40;;;5.30;99.90;;;;;;12384948;28;20564;-87
2022/01/10 13:17:01;;;;;;;19.70;9.38;;;5.30;99.90;;;;;;12381379;28;20054;-87
2022/01/10 13:23:09;;;;;;;25.13;9.68;;;5.30;99.90;;;;;;12378343;28;20161;-87
2022/01/10 13:29:12;;;;;;;23.55;9.15;;;5.30;99.90;;;;;;12379036;28;20570;-85
2022/01/10 13:35:19;;;;;;;19.88;8.77;;;5.40;99.90;;;;;;12391857;28;20052;-87
2022/01/10 13:41:21;;;;;;;28.20;9.52;;;5.50;99.90;;;;;;12368430;28;20045;-87
2022/01/10 13:47:23;;;;;;;20.70;7.45;;;5.50;99.90;;;;;;12382098;28;20042;-87
2022/01/10 13:53:27;;;;;;;17.00;6.85;;;5.60;99.90;;;;;;12380280;28;20124;-85
2022/01/10 13:59:30;;;;;;;18.13;6.90;;;5.70;99.90;;;;;;12381664;28;20050;-85
2022/01/10 14:05:32;;;;;;;18.20;6.95;;;5.70;99.90;;;;;;12388579;28;20041;-87
2022/01/10 14:11:37;;;;;;;16.55;6.80;;;5.70;99.90;;;;;;12421113;28;20133;-86
2022/01/10 14:17:39;;;;;;;;;;;5.80;99.90;;;;;;12382491;28;20690;-86
2022/01/10 14:23:41;;;;;;;18.45;6.93;;;5.70;99.90;;;;;;12374010;28;19929;-85
2022/01/10 14:29:43;;;;;;;26.77;8.25;;;5.70;99.90;;;;;;12375943;28;20045;-87
2022/01/10 14:35:45;;;;;;;25.88;8.73;;;5.70;99.90;;;;;;12379538;28;20580;-85
2022/01/10 14:41:48;;;;;;;18.23;7.63;;;5.60;99.90;;;;;;12390758;28;20089;-84
2022/01/10 14:47:50;;;;;;;20.00;8.10;;;5.40;99.90;;;;;;12385871;28;20054;-84
2022/01/10 14:53:52;;;;;;;25.73;8.82;;;5.30;99.90;;;;;;12392923;28;20114;-88
2022/01/10 14:59:55;;;;;;;23.40;7.60;;;5.20;99.90;;;;;;12385330;28;20050;-85
2022/01/10 15:05:57;;;;;;;21.88;7.63;;;5.20;99.90;;;;;;12378091;28;20045;-86
2022/01/10 15:11:59;;;;;;;20.38;7.97;;;5.10;99.90;;;;;;12392938;28;20049;-86
2022/01/10 15:18:01;;;;;;;18.33;6.88;;;5.10;99.90;;;;;;12387726;28;20128;-86
2022/01/10 15:24:03;;;;;;;21.30;7.05;;;5.00;99.90;;;;;;12401563;28;20096;-86
2022/01/10 15:30:06;;;;;;;23.15;10.50;;;4.90;99.90;;;;;;12383412;28;20132;-86
2022/01/10 15:36:08;;;;;;;22.95;7.25;;;4.80;99.90;;;;;;12395431;28;20054;-85
2022/01/10 15:42:14;;;;;;;19.85;8.85;;;4.70;99.90;;;;;;12399804;28;20448;-85
2022/01/10 15:48:16;;;;;;;28.92;9.30;;;4.70;99.90;;;;;;12395695;28;20145;-85
2022/01/10 15:54:18;;;;;;;27.75;12.10;;;4.70;99.90;;;;;;12377585;28;20622;-85
2022/01/10 16:00:20;;;;;;;31.35;14.27;;;4.70;99.90;;;;;;12337294;28;20135;-85
2022/01/10 16:06:22;;;;;;;31.77;16.30;;;4.70;99.90;;;;;;12344579;28;20116;-86
2022/01/10 16:12:24;;;;;;;43.00;18.20;;;4.60;99.90;;;;;;12344941;28;20042;-85
2022/01/10 16:18:26;;;;;;;35.65;17.38;;;4.60;99.90;;;;;;12354159;28;20138;-85
2022/01/10 16:24:29;;;;;;;39.40;17.58;;;4.60;99.90;;;;;;12334654;28;20043;-86
2022/01/10 16:30:31;;;;;;;34.72;16.10;;;4.60;99.90;;;;;;12338113;28;20104;-85
2022/01/10 16:36:33;;;;;;;31.08;15.93;;;4.50;99.90;;;;;;12343633;28;20047;-85
2022/01/10 16:42:36;;;;;;;32.00;17.33;;;4.40;99.90;;;;;;12354384;28;20177;-85
2022/01/10 16:48:39;;;;;;;44.10;18.98;;;4.30;99.90;;;;;;12349002;28;20145;-85
2022/01/10 16:54:41;;;;;;;39.05;20.48;;;4.30;99.90;;;;;;12381399;28;20186;-85
2022/01/10 17:00:43;;;;;;;45.47;21.02;;;4.20;99.90;;;;;;12400795;28;20046;-86
2022/01/10 17:06:45;;;;;;;45.05;19.70;;;4.20;99.90;;;;;;12395174;28;20458;-85
2022/01/10 17:12:53;;;;;;;40.88;19.70;;;4.20;99.90;;;;;;12409142;28;20056;-84
2022/01/10 17:18:55;;;;;;;40.53;19.63;;;4.20;99.90;;;;;;12398662;28;20058;-86
2022/01/10 17:25:14;;;;;;;45.00;20.58;;;4.20;99.90;;;;;;12398343;28;20042;-84
2022/01/10 17:31:16;;;;;;;46.10;20.70;;;4.20;99.90;;;;;;12390559;28;20608;-85
2022/01/10 17:37:17;;;;;;;53.00;22.38;;;4.10;99.90;;;;;;12388022;28;20927;-84
2022/01/10 17:43:21;;;;;;;50.70;24.33;;;4.10;99.90;;;;;;12406442;28;20057;-84
2022/01/10 17:49:28;;;;;;;42.20;22.55;;;4.10;99.90;;;;;;12390754;28;20093;-86
2022/01/10 17:55:32;;;;;;;58.72;25.63;;;4.00;99.90;;;;;;12407924;28;20057;-85
2022/01/10 18:01:34;;;;;;;50.83;24.90;;;4.00;99.90;;;;;;12400576;28;20038;-85
2022/01/10 18:07:39;;;;;;;60.88;24.70;;;4.00;99.90;;;;;;12424527;28;20509;-85
2022/01/10 18:13:41;;;;;;;50.90;26.08;;;3.90;99.90;;;;;;12385098;28;20093;-84
2022/01/10 18:19:43;;;;;;;44.67;23.75;;;3.90;99.90;;;;;;12380214;28;20065;-84
2022/01/10 18:25:45;;;;;;;57.65;25.63;;;3.90;99.90;;;;;;12396737;28;20491;-86
2022/01/10 18:31:47;;;;;;;55.10;24.77;;;3.90;99.90;;;;;;12378503;28;20141;-86
2022/01/10 18:37:50;;;;;;;57.92;27.35;;;3.90;99.90;;;;;;12382827;28;20061;-86
2022/01/10 18:43:53;;;;;;;55.75;27.20;;;3.90;99.90;;;;;;12395829;28;20633;-84
2022/01/10 18:49:56;;;;;;;52.87;26.53;;;3.80;99.90;;;;;;12381544;28;20054;-85
2022/01/10 18:55:57;;;;;;;48.95;24.42;;;3.80;99.90;;;;;;12387446;28;20103;-86
2022/01/10 19:01:59;;;;;;;62.50;25.77;;;3.60;99.90;;;;;;12405450;28;20042;-85
2022/01/10 19:08:02;;;;;;;52.13;24.45;;;3.40;99.90;;;;;;12408673;28;20074;-86
2022/01/10 19:14:04;;;;;;;46.92;24.17;;;3.20;99.90;;;;;;12393882;28;20054;-84
2022/01/10 19:20:06;;;;;;;50.78;23.98;;;3.10;99.90;;;;;;12395118;28;20061;-86
2022/01/10 19:26:08;;;;;;;60.47;26.10;;;2.90;99.90;;;;;;12399594;28;20051;-85
2022/01/10 19:32:11;;;;;;;49.38;27.48;;;2.70;99.90;;;;;;12396082;28;20570;-85
2022/01/10 19:38:13;;;;;;;56.50;27.55;;;2.70;99.90;;;;;;12404741;28;20050;-85
2022/01/10 19:44:15;;;;;;;61.47;27.90;;;2.60;99.90;;;;;;12386790;28;20050;-85
2022/01/10 19:50:18;;;;;;;62.95;29.60;;;2.40;99.90;;;;;;12406044;28;20067;-86
2022/01/10 19:56:20;;;;;;;68.43;28.98;;;2.60;99.90;;;;;;12405511;28;20073;-86
2022/01/10 20:02:22;;;;;;;68.05;28.20;;;2.50;99.90;;;;;;12391069;28;20068;-86
2022/01/10 20:08:26;;;;;;;55.65;27.63;;;2.30;99.90;;;;;;12405432;28;20057;-85
2022/01/10 20:14:28;;;;;;;62.07;27.83;;;2.20;99.90;;;;;;12388009;28;20597;-86
2022/01/10 20:20:31;;;;;;;62.15;28.60;;;2.00;99.90;;;;;;12401151;28;20297;-86
2022/01/10 20:26:34;;;;;;;74.70;29.95;;;2.00;99.90;;;;;;12407593;28;20075;-85
2022/01/10 20:32:37;;;;;;;55.50;26.55;;;2.00;99.90;;;;;;12378652;28;20132;-84
2022/01/10 20:38:39;;;;;;;56.67;28.20;;;1.90;99.90;;;;;;12405727;28;20474;-87
2022/01/10 20:44:41;;;;;;;71.63;29.70;;;1.70;99.90;;;;;;12406199;28;20085;-85
2022/01/10 20:50:43;;;;;;;76.82;32.13;;;1.70;99.90;;;;;;12395010;28;20629;-84
2022/01/10 20:56:45;;;;;;;71.95;32.35;;;1.90;99.90;;;;;;12396896;28;20197;-84
2022/01/10 21:02:47;;;;;;;83.38;34.47;;;1.90;99.90;;;;;;12400223;28;20081;-85
2022/01/10 21:08:49;;;;;;;71.57;32.58;;;1.90;99.90;;;;;;12388265;28;20081;-84
2022/01/10 21:14:52;;;;;;;74.95;32.70;;;1.80;99.90;;;;;;12394116;28;20054;-86
2022/01/10 21:20:54;;;;;;;75.47;32.55;;;1.70;99.90;;;;;;12407343;28;20208;-86
2022/01/10 21:26:57;;;;;;;62.80;31.20;;;1.70;99.90;;;;;;12391454;28;20054;-85
2022/01/10 21:32:59;;;;;;;78.13;31.77;;;1.60;99.90;;;;;;12406892;28;20050;-84
2022/01/10 21:39:04;;;;;;;84.40;34.40;;;1.60;99.90;;;;;;12407430;28;20116;-84
2022/01/10 21:45:07;;;;;;;75.70;32.85;;;1.50;99.90;;;;;;12388264;28;20114;-84
2022/01/10 21:51:09;;;;;;;81.82;34.40;;;1.50;99.90;;;;;;12394049;28;20854;-85
2022/01/10 21:57:11;;;;;;;74.93;32.55;;;1.40;99.90;;;;;;12377442;28;20107;-86
2022/01/10 22:03:14;;;;;;;78.85;32.65;;;1.30;99.90;;;;;;12375443;28;20122;-84
2022/01/10 22:09:16;;;;;;;78.68;32.92;;;1.30;99.90;;;;;;12363257;28;20058;-85
2022/01/10 22:15:19;;;;;;;78.30;32.40;;;1.20;99.90;;;;;;12357504;28;20046;-84
2022/01/10 22:21:22;;;;;;;82.82;36.40;;;1.20;99.90;;;;;;12362529;28;20932;-85
2022/01/10 22:27:23;;;;;;;79.30;32.53;;;1.10;99.90;;;;;;12390061;28;20070;-85
2022/01/10 22:33:25;;;;;;;78.00;33.85;;;1.10;99.90;;;;;;12370577;28;20157;-86
2022/01/10 22:39:28;;;;;;;80.80;35.22;;;1.00;99.90;;;;;;12399921;28;20138;-85
2022/01/10 22:45:31;;;;;;;94.72;37.35;;;1.00;99.90;;;;;;12382107;28;20118;-85
2022/01/10 22:51:33;;;;;;;91.82;34.85;;;1.10;99.90;;;;;;12398816;28;20046;-84
2022/01/10 22:57:35;;;;;;;84.63;34.78;;;1.10;99.90;;;;;;12386993;28;20078;-86
2022/01/10 23:03:37;;;;;;;93.13;37.60;;;1.00;99.90;;;;;;12366568;28;20086;-84
2022/01/10 23:09:39;;;;;;;74.75;30.13;;;0.90;99.90;;;;;;12357557;28;20085;-84
2022/01/10 23:15:41;;;;;;;80.45;32.30;;;0.80;99.90;;;;;;12358157;28;20570;-85
2022/01/10 23:21:43;;;;;;;77.93;32.90;;;0.80;99.90;;;;;;12355757;28;20047;-84
2022/01/10 23:27:45;;;;;;;77.55;30.90;;;0.80;99.90;;;;;;12338213;28;20129;-85
2022/01/10 23:33:47;;;;;;;87.10;36.35;;;0.70;99.90;;;;;;12353678;28;20447;-85
2022/01/10 23:39:49;;;;;;;83.05;33.05;;;0.80;99.90;;;;;;12341752;28;20131;-85
2022/01/10 23:45:51;;;;;;;88.43;32.13;;;0.80;99.90;;;;;;12350304;28;20054;-85
2022/01/10 23:51:53;;;;;;;85.50;33.65;;;0.80;99.90;;;;;;12342687;28;20050;-86
2022/01/10 23:57:56;;;;;;;78.50;32.70;;;0.80;99.90;;;;;;12361384;28;20058;-84
